Nearby METAR Reports

 

KIMT - Iron Mountain, Michigan, USA
Distance from station: 0 29mi, 47km
Updated: Wed, 21-Feb-2024 11:54pm CST
Clear
Clear
 Wind from calm
Wind: Calm
Temperature: 27°F , -3°C
Dew Point: 21°F , -6°C
Humidity: 80%
Barometer: 29.80 inHg , 1009.1 hPa
Clouds: Clear
Visibility: 10 miles , 16 km
2024/02/22 05:54 KIMT 220554Z AUTO 00000KT 10SM CLR M03/M06 A2980 RMK AO2 SLP103 T10331061 10033 21033 401171044 55001
KMNM - Menominee, Michigan, USA
Distance from station: SE 31mi, 51km
Updated: Wed, 21-Feb-2024 11:57pm CST
Clear
Clear
 Wind from calm
Wind: Calm
Temperature: 28°F , -2°C
Dew Point: 28°F , -2°C
Humidity: 100%
Barometer: 29.82 inHg , 1009.8 hPa
Clouds: Clear
Visibility: 9 miles , 14 km
2024/02/22 05:57 KMNM 220557Z AUTO 00000KT 9SM CLR M02/M02 A2982 RMK AO2 SLP120 T10171017 10028 21033 56007 FZRANO $
 
KOCQ - Oconto, Wisconsin, USA
Distance from station: SSE 38mi, 61km
Updated: Thu, 22-Feb-2024 12:15am CST
Clear
Clear
 Wind from calm
Wind: Calm
Temperature: 27°F , -3°C
Dew Point: 25°F , -4°C
Humidity: 93%
Barometer: 29.81 inHg , 1009.5 hPa
Clouds: Clear
Visibility: 10 miles , 16 km
2024/02/22 06:15 KOCQ 220615Z AUTO 00000KT 10SM CLR M03/M04 A2981 RMK AO1 T10321039
KEZS - Shawano Muni, Wisconsin, USA
Distance from station: SSW 48mi, 77km
Updated: Thu, 22-Feb-2024 12:15am CST
Clear
Clear
 Wind from calm
Wind: Calm
Temperature: 30°F , -1°C
Dew Point: 23°F , -5°C
Humidity: 75%
Barometer: 29.82 inHg , 1009.8 hPa
Clouds: Clear
Visibility: 10 miles , 16 km
2024/02/22 06:15 KEZS 220615Z AUTO 00000KT 10SM CLR M01/M05 A2982 RMK AO2 LTG DSNT SW T10081049
 
KAIG - Antigo/Langlade, Wisconsin, USA
Distance from station: WSW 51mi, 82km
Updated: Thu, 22-Feb-2024 12:15am CST
Clear
Clear
 Wind from calm
Wind: Calm
Temperature: 28°F , -2°C
Dew Point: 28°F , -2°C
Humidity: 100%
Barometer: 29.82 inHg , 1009.8 hPa
Clouds: Clear
Visibility: 10 miles , 16 km
2024/02/22 06:15 KAIG 220615Z AUTO 00000KT 10SM CLR M02/M02 A2982 RMK AO2 T10181020
KSUE - Sturgeon Bay, Wisconsin, USA
Distance from station: SE 51mi, 82km
Updated: Wed, 21-Feb-2024 11:56pm CST
Clear
Clear
 Wind from calm
Wind: Calm
Temperature: 36°F , 2°C
Dew Point: 28°F , -2°C
Humidity: 75%
Barometer: 29.82 inHg , 1009.8 hPa
Clouds: Clear
Visibility: 10 miles , 16 km
2024/02/22 05:56 KSUE 220556Z AUTO 00000KT 10SM CLR 02/M02 A2982 RMK AO2 SLP102 T00171017 10033 20017 401000000 56007 FZRANO
 
KESC - Escanaba, Michigan, USA
Distance from station: ENE 56mi, 90km
Updated: Wed, 21-Feb-2024 11:56pm CST
Clear
Clear
 Wind from N
Wind: N 6 mph , 9 km/h
Temperature: 30°F , -1°C
Wind Chill: 24°F , -4°C
Dew Point: 30°F , -1°C
Humidity: 100%
Barometer: 29.82 inHg , 1009.8 hPa
Clouds: Clear
Visibility: 7 miles , 11 km
2024/02/22 05:56 KESC 220556Z AUTO 35005KT 7SM CLR M01/M01 A2982 RMK AO2 SLP108 T10111011 10022 21039 58003 FZRANO
KCLI - Clintonville, Wisconsin, USA
Distance from station: SSW 62mi, 99km
Updated: Thu, 22-Feb-2024 12:15am CST
Clear
Clear
 Wind from calm
Wind: Calm
Temperature: 28°F , -2°C
Dew Point: 23°F , -5°C
Humidity: 80%
Barometer: 29.83 inHg , 1010.2 hPa
Clouds: Clear
Visibility: 10 miles , 16 km
2024/02/22 06:15 KCLI 220615Z AUTO 00000KT 10SM CLR M02/M05 A2983 RMK AO2 T10171054
 
KGRB - Ashwaubenon, Wisconsin, USA
Distance from station: S 63mi, 102km
Updated: Wed, 21-Feb-2024 11:53pm CST
Clear
Clear
 Wind from calm
Wind: Calm
Temperature: 30°F , -1°C
Dew Point: 27°F , -3°C
Humidity: 86%
Barometer: 29.81 inHg , 1009.5 hPa
Clouds: Clear
Visibility: 10 miles , 16 km
2024/02/22 05:53 KGRB 220553Z AUTO 00000KT 10SM CLR M01/M03 A2981 RMK AO2 SLP101 T10061033 10072 21011 401331011 56007
KEGV - Eagle River, Wisconsin, USA
Distance from station: NW 66mi, 107km
Updated: Thu, 22-Feb-2024 12:15am CST
Clear
Clear
 Wind from calm
Wind: Calm
Temperature: 25°F , -4°C
Dew Point: 21°F , -6°C
Humidity: 86%
Barometer: 29.80 inHg , 1009.1 hPa
Clouds: Clear
Visibility: 10 miles , 16 km
2024/02/22 06:15 KEGV 220615Z AUTO 00000KT 10SM CLR M04/M06 A2980 RMK AO2 T10451061
 
KRHI - Rhinelander, Wisconsin, USA
Distance from station: WNW 68mi, 109km
Updated: Wed, 21-Feb-2024 11:53pm CST
Clear
Clear
 Wind from calm
Wind: Calm
Temperature: 27°F , -3°C
Dew Point: 16°F , -9°C
Humidity: 64%
Barometer: 29.81 inHg , 1009.5 hPa
Clouds: Clear
Visibility: 10 miles , 16 km
2024/02/22 05:53 KRHI 220553Z AUTO 00000KT 10SM CLR M03/M09 A2981 RMK AO2 SLP111 T10281089 10067 21039 401171050 56002
KLNL - Land O Lakes, Wisconsin, USA
Distance from station: NW 74mi, 119km
Updated: Thu, 22-Feb-2024 12:15am CST
Clear
Clear
 Wind from calm
Wind: Calm
Temperature: 25°F , -4°C
Dew Point: 21°F , -6°C
Humidity: 86%
Barometer: 29.82 inHg , 1009.8 hPa
Clouds: Clear
Visibility: 10 miles , 16 km
2024/02/22 06:15 KLNL 220615Z AUTO 00000KT 10SM CLR M04/M06 A2982 RMK AO2 T10441058
 
KSAW - Gwinn/Sawyer, Michigan, USA
Distance from station: NNE 74mi, 120km
Updated: Thu, 22-Feb-2024 12:18am CST
Clear
Clear
 Wind from NW
Wind: NW 1 mph , 2 km/h
Temperature: 28°F , -2°C
Dew Point: 27°F , -3°C
Humidity: 93%
Barometer: 29.80 inHg , 1009.1 hPa
Clouds: Clear
Visibility: 10 miles , 16 km
2024/02/22 06:18 KSAW 220618Z AUTO 32001KT 10SM CLR M02/M03 A2980 RMK AO2